createdAt,value
2022-08-27T00:01:00.960Z,18.10
2022-08-27T00:03:46.856Z,18.20
2022-08-27T00:06:32.444Z,18.10
2022-08-27T00:09:26.729Z,18.10
2022-08-27T00:12:13.642Z,18.10
2022-08-27T00:15:00.544Z,18.10
2022-08-27T00:17:46.753Z,18.00
2022-08-27T00:20:32.215Z,18.00
2022-08-27T00:23:17.678Z,18.00
2022-08-27T00:26:04.572Z,17.90
2022-08-27T00:28:50.962Z,17.90
2022-08-27T00:31:36.424Z,17.90
2022-08-27T00:34:22.884Z,17.90
2022-08-27T00:37:08.764Z,17.90
2022-08-27T00:39:54.463Z,17.90
2022-08-27T00:42:39.772Z,17.90
2022-08-27T00:45:25.717Z,17.90
2022-08-27T00:48:15.309Z,17.80
2022-08-27T00:51:04.648Z,17.80
2022-08-27T00:53:51.755Z,17.80
2022-08-27T00:56:44.439Z,17.80
2022-08-27T00:59:34.742Z,17.70
2022-08-27T01:02:20.677Z,17.70
2022-08-27T01:05:17.256Z,17.70
2022-08-27T01:08:09.761Z,17.70
2022-08-27T01:10:58.461Z,17.60
2022-08-27T01:13:59.508Z,17.70
2022-08-27T01:16:54.324Z,17.60
2022-08-27T01:19:55.402Z,17.60
2022-08-27T01:22:55.781Z,17.60
2022-08-27T01:25:43.448Z,17.60
2022-08-27T01:28:35.792Z,17.60
2022-08-27T01:31:23.367Z,17.60
2022-08-27T01:34:08.784Z,17.90
2022-08-27T01:36:57.473Z,17.50
2022-08-27T01:39:44.568Z,17.60
2022-08-27T01:42:34.280Z,17.50
2022-08-27T01:45:26.152Z,17.50
2022-08-27T01:48:12.155Z,17.50
2022-08-27T01:50:57.611Z,17.50
2022-08-27T01:53:43.387Z,17.50
2022-08-27T01:56:29.160Z,17.50
2022-08-27T01:59:14.801Z,17.50
2022-08-27T02:02:01.830Z,17.50
2022-08-27T02:04:47.388Z,17.50
2022-08-27T02:07:32.929Z,17.50
2022-08-27T02:10:23.839Z,17.50
2022-08-27T02:13:13.395Z,17.50
2022-08-27T02:15:59.085Z,17.50
2022-08-27T02:18:44.329Z,17.60
2022-08-27T02:21:30.329Z,17.50
2022-08-27T02:24:15.860Z,17.50
2022-08-27T02:27:02.467Z,17.50
2022-08-27T02:29:48.971Z,17.50
2022-08-27T02:32:35.431Z,17.50
2022-08-27T02:35:23.996Z,17.50
2022-08-27T02:38:10.452Z,17.50
2022-08-27T02:40:56.163Z,17.50
2022-08-27T02:43:41.591Z,17.50
2022-08-27T02:46:27.394Z,17.50
2022-08-27T02:49:12.832Z,17.50
2022-08-27T02:51:58.206Z,17.50
2022-08-27T02:54:44.493Z,17.50
2022-08-27T02:57:31.385Z,17.40
2022-08-27T03:00:24.084Z,17.30
2022-08-27T03:03:10.757Z,17.30
2022-08-27T03:05:58.712Z,17.30
2022-08-27T03:08:53.353Z,17.30
2022-08-27T03:11:39.671Z,17.20
2022-08-27T03:14:25.270Z,17.10
2022-08-27T03:17:29.176Z,17.00
2022-08-27T03:20:14.818Z,17.00
2022-08-27T03:23:00.994Z,17.00
2022-08-27T03:25:51.574Z,17.00
2022-08-27T03:28:37.556Z,17.00
2022-08-27T03:31:28.246Z,17.00
2022-08-27T03:34:13.899Z,17.10
2022-08-27T03:37:05.293Z,17.00
2022-08-27T03:39:50.792Z,16.80
2022-08-27T03:42:36.894Z,16.90
2022-08-27T03:45:22.703Z,16.90
2022-08-27T03:48:08.202Z,16.90
2022-08-27T03:50:53.818Z,16.80
2022-08-27T03:53:40.070Z,16.80
2022-08-27T03:56:25.470Z,16.80
2022-08-27T03:59:10.710Z,16.80
2022-08-27T04:01:56.618Z,16.80
2022-08-27T04:04:42.065Z,16.80
2022-08-27T04:07:27.570Z,16.80
2022-08-27T04:10:14.134Z,16.90
2022-08-27T04:13:00.275Z,16.90
2022-08-27T04:15:48.126Z,16.90
2022-08-27T04:18:34.209Z,16.90
2022-08-27T04:21:19.627Z,16.90
2022-08-27T04:24:05.438Z,16.90
2022-08-27T04:26:51.546Z,16.90
2022-08-27T04:29:38.072Z,16.90
2022-08-27T04:32:27.399Z,17.00
2022-08-27T04:35:14.743Z,17.00
2022-08-27T04:38:00.169Z,17.00
2022-08-27T04:41:04.360Z,17.10
2022-08-27T04:43:56.295Z,17.10
2022-08-27T04:46:43.281Z,17.20
2022-08-27T04:49:35.862Z,17.30
2022-08-27T04:52:21.717Z,17.30
2022-08-27T04:55:07.818Z,17.40
2022-08-27T04:57:53.434Z,17.40
2022-08-27T05:00:51.059Z,17.50
2022-08-27T05:03:36.798Z,17.50
2022-08-27T05:06:22.892Z,17.50
2022-08-27T05:09:08.692Z,17.60
2022-08-27T05:11:55.555Z,17.70
2022-08-27T05:14:41.056Z,17.80
2022-08-27T05:17:26.476Z,17.90
2022-08-27T05:20:12.418Z,18.00
2022-08-27T05:22:57.877Z,18.10
2022-08-27T05:25:46.044Z,18.10
2022-08-27T05:28:31.546Z,18.20
2022-08-27T05:31:18.264Z,18.30
2022-08-27T05:34:10.655Z,18.30
2022-08-27T05:36:59.215Z,18.40
2022-08-27T05:39:44.843Z,18.50
2022-08-27T05:42:31.921Z,18.60
2022-08-27T05:45:17.460Z,18.60
2022-08-27T05:48:03.581Z,18.70
2022-08-27T05:50:49.063Z,18.80
2022-08-27T05:53:34.386Z,18.90
2022-08-27T05:56:22.752Z,18.90
2022-08-27T05:59:27.049Z,19.00
2022-08-27T06:02:12.783Z,19.10
2022-08-27T06:04:58.280Z,19.10
2022-08-27T06:07:43.597Z,19.20
2022-08-27T06:10:29.356Z,19.30
2022-08-27T06:13:15.348Z,19.30
2022-08-27T06:16:06.635Z,19.40
2022-08-27T06:18:53.084Z,19.50
2022-08-27T06:21:40.330Z,19.60
2022-08-27T06:24:26.245Z,19.60
2022-08-27T06:27:13.526Z,19.70
2022-08-27T06:29:59.235Z,19.70
2022-08-27T06:32:44.612Z,19.80
2022-08-27T06:35:33.931Z,19.90
2022-08-27T06:38:19.660Z,20.00
2022-08-27T06:41:06.638Z,20.10
2022-08-27T06:44:02.632Z,20.20
2022-08-27T06:46:48.258Z,20.30
2022-08-27T06:49:34.062Z,20.40
2022-08-27T06:52:19.518Z,20.50
2022-08-27T06:55:04.959Z,20.60
2022-08-27T06:57:50.487Z,20.70
2022-08-27T07:00:35.919Z,20.80
2022-08-27T07:03:21.303Z,20.80
2022-08-27T07:06:07.733Z,21.00
2022-08-27T07:08:53.800Z,21.00
2022-08-27T07:11:40.027Z,21.10
2022-08-27T07:14:25.761Z,21.20
2022-08-27T07:17:15.939Z,21.30
2022-08-27T07:20:02.666Z,21.30
2022-08-27T07:22:48.815Z,21.40
2022-08-27T07:25:34.372Z,21.50
2022-08-27T07:28:19.687Z,21.50
2022-08-27T07:31:06.376Z,21.70
2022-08-27T07:33:53.131Z,21.70
2022-08-27T07:36:39.552Z,21.70
2022-08-27T07:39:25.408Z,21.90
2022-08-27T07:42:29.451Z,21.90
2022-08-27T07:45:15.173Z,21.90
2022-08-27T07:48:00.604Z,22.00
2022-08-27T07:50:46.043Z,22.10
2022-08-27T07:53:34.557Z,22.20
2022-08-27T07:56:21.153Z,22.30
2022-08-27T07:59:06.723Z,22.30
2022-08-27T08:01:52.548Z,22.40
2022-08-27T08:04:37.769Z,22.50
2022-08-27T08:07:25.167Z,22.60
2022-08-27T08:10:11.619Z,22.60
2022-08-27T08:12:57.212Z,22.70
2022-08-27T08:15:45.082Z,22.80
2022-08-27T08:18:30.858Z,22.90
2022-08-27T08:21:16.299Z,23.00
2022-08-27T08:24:02.587Z,23.00
2022-08-27T08:26:48.391Z,23.10
2022-08-27T08:29:34.479Z,23.10
2022-08-27T08:32:20.691Z,23.20
2022-08-27T08:35:07.394Z,23.30
2022-08-27T08:37:53.124Z,23.30
2022-08-27T08:40:45.131Z,23.30
2022-08-27T08:43:37.168Z,23.50
2022-08-27T08:46:53.846Z,23.50
2022-08-27T08:49:54.596Z,23.60
2022-08-27T08:53:11.629Z,23.60
2022-08-27T08:56:01.989Z,23.70
2022-08-27T08:59:08.801Z,23.80
2022-08-27T09:01:54.816Z,23.90
2022-08-27T09:04:42.144Z,24.00
2022-08-27T09:08:15.403Z,24.10
2022-08-27T09:11:12.005Z,24.10
2022-08-27T09:14:09.270Z,24.10
2022-08-27T09:17:02.429Z,24.20
2022-08-27T09:19:52.787Z,24.30
2022-08-27T09:22:50.475Z,24.40
2022-08-27T09:25:39.250Z,24.50
2022-08-27T09:28:57.758Z,24.60
2022-08-27T09:31:47.846Z,24.60
2022-08-27T09:34:36.875Z,24.70
2022-08-27T09:37:34.001Z,24.70
2022-08-27T09:40:32.094Z,24.80
2022-08-27T09:43:17.490Z,24.80
2022-08-27T09:46:14.443Z,24.90
2022-08-27T09:49:13.593Z,24.90
2022-08-27T09:51:59.215Z,25.00
2022-08-27T09:54:47.274Z,25.00
2022-08-27T09:57:41.378Z,25.10
2022-08-27T10:00:39.132Z,25.10
2022-08-27T10:03:24.849Z,25.20
2022-08-27T10:06:11.391Z,25.30
2022-08-27T10:09:08.287Z,25.30
2022-08-27T10:12:03.610Z,25.20
2022-08-27T10:14:54.280Z,25.30
2022-08-27T10:18:00.024Z,25.30
2022-08-27T10:21:21.783Z,25.50
2022-08-27T10:24:13.793Z,25.50
2022-08-27T10:27:17.204Z,25.50
2022-08-27T10:30:08.514Z,25.70
2022-08-27T10:32:57.024Z,25.70
2022-08-27T10:35:54.690Z,25.70
2022-08-27T10:38:53.231Z,25.80
2022-08-27T10:42:29.926Z,25.80
2022-08-27T10:46:09.069Z,25.70
2022-08-27T10:49:09.687Z,25.70
2022-08-27T10:52:18.320Z,25.80
2022-08-27T10:55:26.768Z,25.90
2022-08-27T10:58:39.906Z,25.90
2022-08-27T11:01:38.898Z,26.00
2022-08-27T11:04:43.403Z,26.00
2022-08-27T11:07:37.695Z,26.00
2022-08-27T11:10:32.376Z,26.10
2022-08-27T11:13:33.017Z,26.10
2022-08-27T11:16:26.085Z,26.20
2022-08-27T11:19:19.422Z,26.20
2022-08-27T11:22:34.972Z,26.20
2022-08-27T11:25:23.550Z,26.30
2022-08-27T11:28:11.606Z,26.20
2022-08-27T11:31:17.711Z,26.20
2022-08-27T11:34:13.031Z,26.30
2022-08-27T11:37:02.812Z,26.40
2022-08-27T11:39:54.127Z,26.30
2022-08-27T11:42:45.720Z,26.40
2022-08-27T11:45:51.144Z,26.50
2022-08-27T11:48:38.979Z,26.50
2022-08-27T11:51:34.305Z,26.60
2022-08-27T11:54:31.325Z,26.60
2022-08-27T11:57:31.159Z,26.70
2022-08-27T12:00:30.595Z,26.70
2022-08-27T12:03:19.288Z,26.70
2022-08-27T12:06:08.915Z,26.80
2022-08-27T12:09:05.615Z,25.70
2022-08-27T12:12:06.339Z,26.60
2022-08-27T12:14:57.669Z,26.70
2022-08-27T12:18:04.038Z,26.70
2022-08-27T12:21:14.488Z,26.70
2022-08-27T12:24:32.728Z,26.80
2022-08-27T12:27:32.175Z,26.90
2022-08-27T12:30:28.477Z,27.00
2022-08-27T12:33:32.593Z,27.10
2022-08-27T12:36:27.875Z,27.00
2022-08-27T12:39:19.650Z,27.20
2022-08-27T12:42:14.434Z,27.20
2022-08-27T12:44:59.908Z,27.10
2022-08-27T12:47:51.002Z,27.10
2022-08-27T12:50:37.928Z,27.10
2022-08-27T12:53:42.830Z,27.20
2022-08-27T12:57:12.357Z,27.20
2022-08-27T13:00:19.196Z,27.20
2022-08-27T13:03:17.759Z,27.30
2022-08-27T13:06:14.332Z,27.30
2022-08-27T13:09:03.776Z,27.40
2022-08-27T13:11:55.730Z,27.40
2022-08-27T13:14:41.600Z,27.40
2022-08-27T13:17:27.686Z,27.40
2022-08-27T13:20:25.194Z,27.40
2022-08-27T13:23:20.478Z,27.50
2022-08-27T13:26:09.659Z,27.50
2022-08-27T13:29:01.206Z,27.50
2022-08-27T13:31:51.863Z,27.70
2022-08-27T13:34:40.945Z,27.70
2022-08-27T13:37:33.998Z,27.70
2022-08-27T13:40:30.836Z,27.90
2022-08-27T13:43:17.567Z,28.00
2022-08-27T13:46:09.007Z,28.00
2022-08-27T13:48:56.859Z,28.30
2022-08-27T13:51:42.239Z,28.50
2022-08-27T13:54:28.030Z,28.60
2022-08-27T13:57:24.817Z,28.80
2022-08-27T14:00:18.423Z,29.00
2022-08-27T14:03:04.262Z,29.20
2022-08-27T14:05:56.949Z,29.30
2022-08-27T14:08:42.429Z,29.30
2022-08-27T14:11:28.469Z,29.50
2022-08-27T14:14:16.443Z,29.50
2022-08-27T14:17:04.608Z,29.60
2022-08-27T14:19:52.299Z,29.70
2022-08-27T14:22:38.214Z,29.70
2022-08-27T14:25:23.996Z,29.80
2022-08-27T14:28:09.906Z,29.70
2022-08-27T14:30:55.673Z,29.60
2022-08-27T14:33:41.212Z,29.60
2022-08-27T14:36:29.536Z,29.60
2022-08-27T14:39:15.332Z,29.50
2022-08-27T14:42:01.212Z,29.40
2022-08-27T14:44:47.190Z,29.40
2022-08-27T14:47:33.826Z,29.40
2022-08-27T14:50:19.596Z,29.40
2022-08-27T14:53:05.052Z,29.40
2022-08-27T14:55:52.202Z,29.30
2022-08-27T14:58:38.056Z,29.30
2022-08-27T15:01:25.587Z,29.30
2022-08-27T15:04:11.240Z,29.20
2022-08-27T15:06:56.835Z,29.20
2022-08-27T15:09:43.031Z,29.00
2022-08-27T15:12:28.513Z,29.00
2022-08-27T15:15:15.819Z,29.00
2022-08-27T15:18:01.385Z,28.90
2022-08-27T15:20:47.028Z,28.80
2022-08-27T15:23:32.633Z,28.80
2022-08-27T15:26:18.178Z,28.70
2022-08-27T15:29:06.629Z,28.60
2022-08-27T15:31:52.928Z,28.50
2022-08-27T15:34:38.240Z,28.50
2022-08-27T15:37:24.457Z,28.20
2022-08-27T15:40:11.752Z,28.10
2022-08-27T15:43:02.153Z,27.90
2022-08-27T15:45:47.808Z,27.70
2022-08-27T15:48:33.638Z,27.60
2022-08-27T15:51:30.274Z,27.40
2022-08-27T15:54:16.369Z,27.30
2022-08-27T15:57:02.452Z,27.10
2022-08-27T15:59:48.651Z,27.10
2022-08-27T16:02:33.823Z,26.90
2022-08-27T16:05:20.568Z,26.80
2022-08-27T16:08:07.199Z,26.70
2022-08-27T16:10:52.841Z,26.60
2022-08-27T16:13:38.313Z,26.50
2022-08-27T16:16:28.734Z,26.40
2022-08-27T16:19:16.638Z,26.30
2022-08-27T16:22:02.066Z,26.20
2022-08-27T16:24:47.486Z,26.10
2022-08-27T16:27:33.363Z,25.90
2022-08-27T16:30:20.549Z,25.80
2022-08-27T16:33:05.828Z,25.70
2022-08-27T16:35:51.663Z,25.70
2022-08-27T16:38:37.286Z,25.60
2022-08-27T16:41:23.270Z,25.50
2022-08-27T16:44:08.623Z,25.30
2022-08-27T16:46:55.223Z,25.20
2022-08-27T16:49:59.095Z,25.10
2022-08-27T16:52:44.488Z,24.90
2022-08-27T16:55:32.436Z,24.80
2022-08-27T16:58:24.568Z,24.70
2022-08-27T17:01:12.067Z,24.60
2022-08-27T17:04:13.396Z,24.50
2022-08-27T17:07:01.775Z,24.30
2022-08-27T17:09:47.303Z,24.20
2022-08-27T17:12:32.743Z,24.10
2022-08-27T17:15:18.606Z,23.90
2022-08-27T17:18:04.493Z,23.80
2022-08-27T17:20:52.241Z,23.70
2022-08-27T17:23:47.011Z,23.60
2022-08-27T17:26:33.329Z,23.60
2022-08-27T17:29:19.796Z,23.40
2022-08-27T17:32:08.848Z,23.30
2022-08-27T17:34:54.615Z,23.20
2022-08-27T17:37:40.343Z,23.10
2022-08-27T17:40:26.095Z,23.00
2022-08-27T17:43:11.561Z,22.90
2022-08-27T17:45:59.217Z,22.80
2022-08-27T17:48:45.134Z,22.70
2022-08-27T17:51:30.879Z,22.70
2022-08-27T17:54:33.849Z,22.50
2022-08-27T17:57:29.338Z,22.50
2022-08-27T18:00:25.379Z,22.40
2022-08-27T18:03:16.638Z,22.30
2022-08-27T18:06:02.795Z,22.30
2022-08-27T18:08:48.423Z,22.10
2022-08-27T18:11:37.310Z,22.10
2022-08-27T18:14:22.675Z,22.10
2022-08-27T18:17:08.208Z,22.10
2022-08-27T18:19:53.661Z,22.00
2022-08-27T18:22:40.910Z,22.00
2022-08-27T18:25:36.375Z,22.00
2022-08-27T18:28:22.367Z,21.90
2022-08-27T18:31:09.852Z,21.90
2022-08-27T18:33:55.713Z,21.80
2022-08-27T18:36:41.441Z,21.70
2022-08-27T18:39:27.790Z,21.70
2022-08-27T18:42:13.926Z,21.60
2022-08-27T18:45:02.550Z,21.50
2022-08-27T18:47:53.534Z,21.50
2022-08-27T18:50:45.248Z,21.40
2022-08-27T18:53:34.351Z,21.30
2022-08-27T18:56:20.461Z,21.30
2022-08-27T18:59:06.947Z,21.20
2022-08-27T19:01:54.591Z,21.10
2022-08-27T19:04:40.292Z,20.90
2022-08-27T19:07:29.647Z,21.00
2022-08-27T19:10:14.797Z,20.90
2022-08-27T19:13:00.243Z,20.90
2022-08-27T19:16:04.514Z,20.90
2022-08-27T19:18:50.850Z,20.80
2022-08-27T19:21:36.049Z,20.90
2022-08-27T19:24:22.321Z,20.80
2022-08-27T19:27:09.415Z,20.80
2022-08-27T19:29:56.099Z,20.80
2022-08-27T19:32:42.047Z,20.70
2022-08-27T19:35:27.304Z,20.70
2022-08-27T19:38:14.246Z,20.70
2022-08-27T19:41:01.865Z,20.70
2022-08-27T19:43:47.459Z,20.70
2022-08-27T19:46:32.899Z,20.70
2022-08-27T19:49:18.271Z,20.70
2022-08-27T19:52:08.405Z,20.70
2022-08-27T19:55:12.548Z,20.60
2022-08-27T19:57:58.949Z,20.60
2022-08-27T20:00:44.987Z,20.50
2022-08-27T20:03:31.593Z,20.50
2022-08-27T20:06:17.448Z,20.50
2022-08-27T20:09:07.785Z,20.50
2022-08-27T20:11:54.402Z,20.50
2022-08-27T20:14:39.936Z,20.50
2022-08-27T20:17:27.296Z,20.40
2022-08-27T20:20:16.969Z,20.50
2022-08-27T20:23:05.150Z,20.40
2022-08-27T20:25:52.324Z,20.30
2022-08-27T20:28:39.988Z,20.40
2022-08-27T20:31:27.608Z,20.30
2022-08-27T20:34:13.108Z,20.20
2022-08-27T20:36:58.857Z,20.20
2022-08-27T20:39:44.719Z,20.10
2022-08-27T20:42:30.301Z,20.00
2022-08-27T20:45:16.528Z,19.90
2022-08-27T20:48:04.203Z,19.90
2022-08-27T20:50:49.924Z,19.90
2022-08-27T20:53:35.200Z,19.90
2022-08-27T20:56:20.963Z,19.90
2022-08-27T20:59:25.388Z,19.80
2022-08-27T21:02:13.165Z,19.80
2022-08-27T21:05:07.076Z,19.70
2022-08-27T21:07:53.109Z,19.70
2022-08-27T21:10:45.451Z,19.70
2022-08-27T21:13:30.672Z,19.60
2022-08-27T21:16:16.731Z,19.60
2022-08-27T21:19:02.141Z,19.60
2022-08-27T21:21:47.585Z,19.60
2022-08-27T21:24:33.874Z,19.50
2022-08-27T21:27:21.242Z,19.50
2022-08-27T21:30:07.555Z,19.40
2022-08-27T21:32:55.899Z,19.50
2022-08-27T21:35:41.731Z,19.60
2022-08-27T21:38:27.354Z,19.60
2022-08-27T21:41:12.715Z,19.50
2022-08-27T21:43:58.193Z,19.40
2022-08-27T21:46:43.598Z,19.40
2022-08-27T21:49:32.275Z,19.40
2022-08-27T21:52:17.624Z,19.30
2022-08-27T21:55:04.193Z,19.20
2022-08-27T21:57:49.669Z,19.20
2022-08-27T22:00:37.117Z,19.20
2022-08-27T22:03:24.182Z,19.10
2022-08-27T22:06:12.912Z,19.10
2022-08-27T22:08:58.121Z,19.10
2022-08-27T22:11:43.974Z,19.00
2022-08-27T22:14:30.291Z,18.90
2022-08-27T22:17:15.949Z,18.90
2022-08-27T22:20:01.147Z,18.90
2022-08-27T22:22:47.287Z,18.90
2022-08-27T22:25:33.111Z,18.80
2022-08-27T22:28:19.533Z,18.80
2022-08-27T22:31:07.376Z,18.70
2022-08-27T22:33:53.516Z,18.70
2022-08-27T22:36:39.620Z,18.70
2022-08-27T22:39:25.032Z,18.80
2022-08-27T22:42:10.962Z,18.70
2022-08-27T22:45:01.344Z,18.70
2022-08-27T22:47:47.466Z,18.60
2022-08-27T22:50:32.729Z,18.60
2022-08-27T22:53:18.287Z,18.60
2022-08-27T22:56:04.298Z,18.60
2022-08-27T22:58:49.680Z,18.50
2022-08-27T23:01:36.353Z,18.40
2022-08-27T23:04:34.737Z,18.40
2022-08-27T23:07:27.381Z,18.40
2022-08-27T23:10:17.168Z,18.40
2022-08-27T23:13:03.581Z,18.50
2022-08-27T23:15:49.571Z,18.40
2022-08-27T23:18:35.938Z,18.40
2022-08-27T23:21:21.472Z,18.40
2022-08-27T23:24:06.919Z,18.40
2022-08-27T23:27:10.810Z,18.40
2022-08-27T23:30:00.701Z,18.30
2022-08-27T23:32:48.862Z,18.20
2022-08-27T23:35:39.608Z,18.20
2022-08-27T23:38:24.974Z,18.20
2022-08-27T23:41:10.582Z,18.20
2022-08-27T23:43:56.743Z,18.20
2022-08-27T23:46:42.246Z,18.20
2022-08-27T23:49:27.912Z,18.40
2022-08-27T23:52:13.378Z,18.40
2022-08-27T23:54:58.854Z,18.30
2022-08-27T23:57:44.121Z,18.30
